Time;durP1;ratioP1;P1;durP2;ratioP2;P2;SDS_P1;SDS_P2;PMS_P1;PMS_P2;Temp;Humidity;BMP_temperature;BMP_pressure;BME280_temperature;BME280_humidity;BME280_pressure;Samples;Min_cycle;Max_cycle;Signal;HPM_P1;HPM_P2
2022/06/17 00:02:08;;;;;;;8.87;3.40;;;;;;;;;;5012617;28;20680;-82
2022/06/17 00:04:35;;;;;;;5.63;2.93;;;;;;;;;;5013800;28;20242;-81
2022/06/17 00:07:04;;;;;;;7.00;3.03;;;;;;;;;;5012196;28;20232;-81
2022/06/17 00:09:33;;;;;;;4.70;2.87;;;;;;;;;;5016472;28;20283;-82
2022/06/17 00:12:00;;;;;;;5.10;3.00;;;;;;;;;;5016778;28;20211;-80
2022/06/17 00:14:31;;;;;;;4.97;3.00;;;;;;;;;;5017790;28;20251;-79
2022/06/17 00:16:58;;;;;;;4.43;3.00;;;;;;;;;;5014790;28;20228;-82
2022/06/17 00:19:26;;;;;;;7.13;3.07;;;;;;;;;;5021460;28;20205;-82
2022/06/17 00:21:54;;;;;;;5.00;3.20;;;;;;;;;;5019178;28;20239;-82
2022/06/17 00:24:22;;;;;;;4.57;3.00;;;;;;;;;;5016404;28;20255;-82
2022/06/17 00:26:50;;;;;;;5.07;3.00;;;;;;;;;;5020044;28;20236;-80
2022/06/17 00:29:18;;;;;;;4.37;2.90;;;;;;;;;;5014537;28;20211;-81
2022/06/17 00:31:47;;;;;;;5.83;3.70;;;;;;;;;;5020458;28;20667;-80
2022/06/17 00:34:14;;;;;;;4.93;3.10;;;;;;;;;;5015875;28;20252;-80
2022/06/17 00:36:42;;;;;;;4.93;3.00;;;;;;;;;;5019094;28;20207;-80
2022/06/17 00:39:13;;;;;;;4.53;3.07;;;;;;;;;;5014672;28;20288;-80
2022/06/17 00:41:40;;;;;;;7.50;3.30;;;;;;;;;;5014287;28;20208;-82
2022/06/17 00:44:10;;;;;;;8.27;3.07;;;;;;;;;;5016642;28;20229;-82
2022/06/17 00:46:41;;;;;;;5.10;3.30;;;;;;;;;;5014834;28;20276;-81
2022/06/17 00:49:13;;;;;;;6.93;3.40;;;;;;;;;;5011153;28;20820;-82
2022/06/17 00:51:44;;;;;;;6.03;3.23;;;;;;;;;;5019430;28;20212;-82
2022/06/17 00:54:16;;;;;;;5.10;3.37;;;;;;;;;;5017771;28;20227;-81
2022/06/17 00:56:43;;;;;;;6.23;3.30;;;;;;;;;;5014668;28;20243;-82
2022/06/17 00:59:13;;;;;;;5.93;3.00;;;;;;;;;;5013987;28;20200;-80
2022/06/17 01:01:44;;;;;;;4.47;3.00;;;;;;;;;;5014184;28;20657;-80
2022/06/17 01:04:13;;;;;;;5.63;3.13;;;;;;;;;;5011599;28;20262;-79
2022/06/17 01:06:42;;;;;;;7.33;3.30;;;;;;;;;;5015456;28;20694;-79
2022/06/17 01:11:56;;;;;;;8.70;3.40;;;;;;;;;;5015188;28;20327;-81
2022/06/17 01:14:23;;;;;;;6.20;3.33;;;;;;;;;;5011815;28;20227;-81
2022/06/17 01:16:51;;;;;;;7.10;3.20;;;;;;;;;;5016696;28;20291;-81
2022/06/17 01:19:24;;;;;;;7.13;3.53;;;;;;;;;;5015768;28;20200;-80
2022/06/17 01:21:53;;;;;;;5.20;3.27;;;;;;;;;;5021148;28;20240;-81
2022/06/17 01:24:21;;;;;;;7.80;3.60;;;;;;;;;;5011659;28;20300;-81
2022/06/17 01:26:49;;;;;;;5.07;3.20;;;;;;;;;;5017058;28;20204;-82
2022/06/17 01:29:16;;;;;;;5.17;3.30;;;;;;;;;;5014660;28;20224;-80
2022/06/17 01:31:45;;;;;;;5.17;3.30;;;;;;;;;;5015833;28;20238;-80
2022/06/17 01:34:13;;;;;;;5.93;3.40;;;;;;;;;;5014971;28;20224;-80
2022/06/17 01:36:41;;;;;;;5.53;3.30;;;;;;;;;;5013493;28;20204;-82
2022/06/17 01:39:11;;;;;;;8.93;3.67;;;;;;;;;;5017366;28;20220;-82
2022/06/17 01:41:40;;;;;;;5.90;3.47;;;;;;;;;;5014917;28;20212;-81
2022/06/17 01:44:09;;;;;;;8.73;3.37;;;;;;;;;;5019164;28;20237;-82
2022/06/17 01:46:37;;;;;;;8.87;3.30;;;;;;;;;;5015483;28;20204;-80
2022/06/17 01:49:06;;;;;;;6.93;3.20;;;;;;;;;;5015751;28;20206;-81
2022/06/17 01:51:35;;;;;;;3.83;3.00;;;;;;;;;;5013827;28;20272;-81
2022/06/17 01:54:05;;;;;;;7.53;3.20;;;;;;;;;;5015992;28;20224;-81
2022/06/17 01:56:34;;;;;;;5.33;3.50;;;;;;;;;;5021268;28;20255;-81
2022/06/17 01:59:05;;;;;;;6.47;3.33;;;;;;;;;;5019374;28;20209;-81
2022/06/17 02:01:33;;;;;;;5.03;3.33;;;;;;;;;;5023446;28;20207;-81
2022/06/17 02:06:32;;;;;;;5.53;3.30;;;;;;;;;;5002638;23;20235;-80
2022/06/17 02:09:00;;;;;;;6.97;3.83;;;;;;;;;;4984221;28;20224;-80
2022/06/17 02:11:29;;;;;;;4.10;3.23;;;;;;;;;;4983437;28;20784;-81
2022/06/17 02:13:56;;;;;;;6.20;3.53;;;;;;;;;;4985007;28;20212;-80
2022/06/17 02:16:26;;;;;;;6.23;3.30;;;;;;;;;;4979715;28;20222;-83
2022/06/17 02:18:56;;;;;;;5.83;3.53;;;;;;;;;;4982558;28;20769;-82
2022/06/17 02:21:25;;;;;;;9.50;3.80;;;;;;;;;;4979296;28;20403;-82
2022/06/17 02:24:00;;;;;;;5.83;3.50;;;;;;;;;;4980941;28;20225;-84
2022/06/17 02:26:30;;;;;;;5.93;3.30;;;;;;;;;;4988418;28;20202;-81
2022/06/17 02:28:57;;;;;;;5.37;3.30;;;;;;;;;;4988519;28;20210;-83
2022/06/17 02:31:28;;;;;;;7.27;4.00;;;;;;;;;;4991939;28;20203;-81
2022/06/17 02:33:56;;;;;;;5.33;3.53;;;;;;;;;;4999764;28;20194;-80
2022/06/17 02:36:26;;;;;;;7.50;3.77;;;;;;;;;;4999189;28;20208;-82
2022/06/17 02:38:54;;;;;;;5.50;3.03;;;;;;;;;;4980850;28;20601;-82
2022/06/17 02:41:25;;;;;;;6.43;3.77;;;;;;;;;;4980930;28;20211;-83
2022/06/17 02:43:55;;;;;;;6.20;3.37;;;;;;;;;;4982200;28;20627;-81
2022/06/17 02:46:27;;;;;;;6.90;3.87;;;;;;;;;;4979706;28;20232;-82
2022/06/17 02:49:02;;;;;;;6.97;3.83;;;;;;;;;;4981056;28;20228;-82
2022/06/17 02:51:31;;;;;;;5.10;3.53;;;;;;;;;;4981519;28;20729;-83
2022/06/17 02:53:59;;;;;;;5.60;3.90;;;;;;;;;;4980581;28;20205;-82
2022/06/17 02:56:34;;;;;;;5.40;3.30;;;;;;;;;;4983671;28;20256;-82
2022/06/17 02:59:05;;;;;;;6.07;3.80;;;;;;;;;;4979594;28;20224;-82
2022/06/17 03:01:36;;;;;;;4.33;3.23;;;;;;;;;;4980528;28;20292;-82
2022/06/17 03:04:08;;;;;;;7.43;4.00;;;;;;;;;;4978934;28;20225;-82
2022/06/17 03:06:36;;;;;;;6.97;3.53;;;;;;;;;;4981219;28;20539;-82
2022/06/17 03:09:17;;;;;;;9.73;4.17;;;;;;;;;;4980655;28;20213;-82
2022/06/17 03:11:45;;;;;;;6.00;3.73;;;;;;;;;;4979505;28;20215;-82
2022/06/17 03:14:13;;;;;;;5.00;3.70;;;;;;;;;;4984792;28;20208;-83
2022/06/17 03:16:41;;;;;;;6.13;3.63;;;;;;;;;;4981699;28;20201;-82
2022/06/17 03:19:10;;;;;;;7.00;3.33;;;;;;;;;;4985239;28;20651;-82
2022/06/17 03:21:38;;;;;;;6.13;3.30;;;;;;;;;;4983392;28;20205;-83
2022/06/17 03:24:11;;;;;;;5.07;3.23;;;;;;;;;;4986395;28;20272;-83
2022/06/17 03:26:41;;;;;;;4.90;3.43;;;;;;;;;;4983305;28;20320;-82
2022/06/17 03:29:09;;;;;;;7.50;3.43;;;;;;;;;;4985578;28;20232;-82
2022/06/17 03:31:38;;;;;;;7.03;3.53;;;;;;;;;;4983194;28;20224;-81
2022/06/17 03:34:07;;;;;;;8.63;3.30;;;;;;;;;;4980513;28;20586;-82
2022/06/17 03:36:37;;;;;;;6.67;3.50;;;;;;;;;;4984601;28;20232;-82
2022/06/17 03:39:06;;;;;;;6.57;3.20;;;;;;;;;;4985723;28;20248;-82
2022/06/17 03:41:36;;;;;;;5.77;3.50;;;;;;;;;;4980534;28;20304;-83
2022/06/17 03:44:05;;;;;;;5.53;3.33;;;;;;;;;;4983187;28;20230;-83
2022/06/17 03:46:34;;;;;;;5.30;3.57;;;;;;;;;;4982659;28;20219;-82
2022/06/17 03:49:05;;;;;;;8.20;3.70;;;;;;;;;;4980944;28;20794;-83
2022/06/17 03:51:34;;;;;;;4.07;3.20;;;;;;;;;;4989887;28;20256;-82
2022/06/17 03:54:03;;;;;;;8.40;3.80;;;;;;;;;;4984330;28;20675;-83
2022/06/17 03:56:31;;;;;;;5.50;3.00;;;;;;;;;;4984127;28;20626;-82
2022/06/17 03:59:00;;;;;;;4.37;3.33;;;;;;;;;;4985566;28;20216;-83
2022/06/17 04:01:32;;;;;;;5.73;3.30;;;;;;;;;;4988409;28;20209;-81
2022/06/17 04:04:02;;;;;;;5.93;3.27;;;;;;;;;;4984816;28;20272;-83
2022/06/17 04:06:30;;;;;;;7.43;3.17;;;;;;;;;;4987411;28;20219;-84
2022/06/17 04:09:01;;;;;;;5.70;3.43;;;;;;;;;;4985710;28;20269;-83
2022/06/17 04:11:31;;;;;;;5.87;2.80;;;;;;;;;;4984158;28;20202;-83
2022/06/17 04:14:02;;;;;;;5.00;2.60;;;;;;;;;;4984296;28;20228;-82
2022/06/17 04:16:33;;;;;;;4.47;2.50;;;;;;;;;;4982247;28;20241;-83
2022/06/17 04:19:05;;;;;;;5.17;2.47;;;;;;;;;;4981474;28;20684;-81
2022/06/17 04:21:32;;;;;;;6.43;2.73;;;;;;;;;;4985649;28;20213;-83
2022/06/17 04:23:59;;;;;;;9.90;2.83;;;;;;;;;;4980822;28;21539;-83
2022/06/17 04:26:29;;;;;;;7.27;3.03;;;;;;;;;;4982606;28;20221;-82
2022/06/17 04:29:01;;;;;;;7.33;2.87;;;;;;;;;;4980617;28;20256;-83
2022/06/17 04:31:32;;;;;;;4.10;2.73;;;;;;;;;;4980717;28;20859;-83
2022/06/17 04:34:04;;;;;;;7.87;2.90;;;;;;;;;;4978147;28;20232;-83
2022/06/17 04:36:37;;;;;;;4.93;2.93;;;;;;;;;;4981320;28;20206;-82
2022/06/17 04:39:08;;;;;;;6.73;2.77;;;;;;;;;;4982486;28;20321;-83
2022/06/17 04:41:37;;;;;;;4.40;2.73;;;;;;;;;;4982244;28;20268;-83
2022/06/17 04:44:07;;;;;;;5.87;2.60;;;;;;;;;;4982627;28;20209;-83
2022/06/17 04:46:37;;;;;;;3.80;2.60;;;;;;;;;;4978180;28;20220;-83
2022/06/17 04:49:05;;;;;;;8.30;2.70;;;;;;;;;;4979182;28;20216;-83
2022/06/17 04:51:35;;;;;;;13.40;2.87;;;;;;;;;;4980681;28;20224;-83
2022/06/17 04:54:07;;;;;;;8.40;2.80;;;;;;;;;;4975984;28;20209;-82
2022/06/17 04:56:36;;;;;;;7.33;2.90;;;;;;;;;;4975207;28;20758;-82
2022/06/17 04:59:18;;;;;;;10.03;2.80;;;;;;;;;;4975320;28;20210;-83
2022/06/17 05:01:45;;;;;;;10.57;2.60;;;;;;;;;;4976117;28;20219;-83
2022/06/17 05:04:12;;;;;;;6.10;2.60;;;;;;;;;;4979504;28;20276;-83
2022/06/17 05:06:40;;;;;;;7.13;2.60;;;;;;;;;;4979475;28;20216;-84
2022/06/17 05:09:11;;;;;;;7.33;2.60;;;;;;;;;;4975946;28;20217;-83
2022/06/17 05:11:42;;;;;;;4.63;2.30;;;;;;;;;;4974740;28;20293;-83
2022/06/17 05:14:12;;;;;;;10.97;2.97;;;;;;;;;;4978305;28;20232;-84
2022/06/17 05:16:42;;;;;;;4.47;2.60;;;;;;;;;;4979192;28;20238;-84
2022/06/17 05:19:09;;;;;;;4.10;2.47;;;;;;;;;;4982154;28;20267;-84
2022/06/17 05:21:37;;;;;;;7.07;2.70;;;;;;;;;;4980951;28;20227;-84
2022/06/17 05:24:04;;;;;;;3.70;2.50;;;;;;;;;;4976907;28;20202;-83
2022/06/17 05:29:16;;;;;;;4.13;2.13;;;;;;;;;;4973276;28;20212;-83
2022/06/17 05:31:49;;;;;;;6.43;2.33;;;;;;;;;;4974308;28;20212;-83
2022/06/17 05:34:16;;;;;;;4.03;2.20;;;;;;;;;;4975595;28;20206;-83
2022/06/17 05:36:44;;;;;;;5.17;2.60;;;;;;;;;;4976513;28;20300;-83
2022/06/17 05:39:11;;;;;;;7.17;2.13;;;;;;;;;;4977728;28;20212;-83
2022/06/17 05:41:40;;;;;;;7.80;2.43;;;;;;;;;;4975388;28;20210;-83
2022/06/17 05:44:08;;;;;;;4.20;2.47;;;;;;;;;;4976151;28;20625;-82
2022/06/17 05:46:35;;;;;;;6.30;2.10;;;;;;;;;;4975966;28;20308;-82
2022/06/17 05:49:32;;;;;;;4.93;2.20;;;;;;;;;;4977414;28;20291;-82
2022/06/17 05:52:02;;;;;;;5.87;2.60;;;;;;;;;;4979785;28;20212;-83
2022/06/17 05:54:29;;;;;;;3.97;2.30;;;;;;;;;;4986051;28;20286;-83
2022/06/17 05:56:59;;;;;;;4.53;2.60;;;;;;;;;;4984936;28;20233;-83
2022/06/17 05:59:29;;;;;;;4.80;2.30;;;;;;;;;;4992388;28;20213;-83
2022/06/17 06:01:59;;;;;;;5.17;2.50;;;;;;;;;;4996438;28;20310;-82
2022/06/17 06:04:28;;;;;;;4.37;2.30;;;;;;;;;;4999571;28;20284;-82
2022/06/17 06:06:55;;;;;;;5.97;2.23;;;;;;;;;;4996278;28;20229;-83
2022/06/17 06:09:29;;;;;;;4.13;2.03;;;;;;;;;;4976096;28;20212;-83
2022/06/17 06:11:57;;;;;;;6.33;2.10;;;;;;;;;;4974902;28;20205;-82
2022/06/17 06:14:24;;;;;;;3.77;2.30;;;;;;;;;;4977931;28;20324;-83
2022/06/17 06:16:54;;;;;;;2.57;1.90;;;;;;;;;;4981107;28;20304;-83
2022/06/17 06:19:24;;;;;;;4.90;1.90;;;;;;;;;;4978496;28;20240;-83
2022/06/17 06:21:51;;;;;;;2.50;1.70;;;;;;;;;;4979425;28;20214;-83
2022/06/17 06:24:18;;;;;;;2.80;2.00;;;;;;;;;;4978859;28;20237;-82
2022/06/17 06:27:06;;;;;;;4.43;1.93;;;;;;;;;;4993233;28;20213;-82
2022/06/17 06:29:35;;;;;;;4.30;2.10;;;;;;;;;;4988217;28;20209;-81
2022/06/17 06:32:03;;;;;;;4.40;1.83;;;;;;;;;;4980713;28;20218;-81
2022/06/17 06:34:30;;;;;;;4.50;1.90;;;;;;;;;;4979006;28;20225;-80
2022/06/17 06:37:00;;;;;;;3.83;1.90;;;;;;;;;;4976528;28;20210;-81
2022/06/17 06:39:30;;;;;;;4.07;2.00;;;;;;;;;;4978491;28;20221;-81
2022/06/17 06:42:00;;;;;;;3.03;1.73;;;;;;;;;;4977462;28;20210;-82
2022/06/17 06:44:34;;;;;;;3.40;2.00;;;;;;;;;;4983907;28;20323;-81
2022/06/17 06:47:03;;;;;;;4.77;1.83;;;;;;;;;;4980185;28;20219;-82
2022/06/17 06:49:40;;;;;;;3.00;1.70;;;;;;;;;;4980586;28;20264;-82
2022/06/17 06:52:08;;;;;;;4.47;2.50;;;;;;;;;;4982638;28;20217;-81
2022/06/17 06:54:38;;;;;;;2.87;1.50;;;;;;;;;;4974834;28;20792;-82
2022/06/17 06:57:11;;;;;;;5.63;1.77;;;;;;;;;;4983122;28;20209;-82
2022/06/17 06:59:43;;;;;;;5.07;1.90;;;;;;;;;;4981766;28;20784;-83
2022/06/17 07:02:12;;;;;;;7.50;1.90;;;;;;;;;;4980586;28;20291;-81
2022/06/17 07:04:40;;;;;;;6.47;2.20;;;;;;;;;;4982265;28;20237;-83
2022/06/17 07:07:07;;;;;;;9.33;2.43;;;;;;;;;;4979739;28;20284;-82
2022/06/17 07:09:35;;;;;;;12.23;2.50;;;;;;;;;;4977479;28;20198;-82
2022/06/17 07:12:06;;;;;;;10.83;2.67;;;;;;;;;;4982447;28;20213;-82
2022/06/17 07:14:48;;;;;;;11.60;2.60;;;;;;;;;;4980743;28;20248;-81
2022/06/17 07:17:21;;;;;;;11.27;2.47;;;;;;;;;;4987028;28;20233;-82
2022/06/17 07:19:50;;;;;;;14.30;2.37;;;;;;;;;;4979446;28;20304;-83
2022/06/17 07:22:17;;;;;;;7.13;2.30;;;;;;;;;;4980677;28;20217;-83
2022/06/17 07:24:50;;;;;;;8.40;2.40;;;;;;;;;;4983380;28;20793;-83
2022/06/17 07:27:19;;;;;;;6.50;2.27;;;;;;;;;;4987940;28;20231;-83
2022/06/17 07:29:51;;;;;;;6.47;1.80;;;;;;;;;;4994402;28;20269;-83
2022/06/17 07:32:21;;;;;;;7.40;2.30;;;;;;;;;;4993119;28;20211;-82
2022/06/17 07:34:48;;;;;;;10.77;1.90;;;;;;;;;;4993599;28;20269;-83
2022/06/17 07:40:04;;;;;;;5.83;1.90;;;;;;;;;;4993572;28;20256;-82
2022/06/17 07:42:44;;;;;;;2.93;1.50;;;;;;;;;;4990353;28;20220;-83
2022/06/17 07:45:13;;;;;;;5.33;1.77;;;;;;;;;;4988075;28;20314;-82
2022/06/17 07:47:42;;;;;;;2.40;1.80;;;;;;;;;;4988438;28;20231;-81
2022/06/17 07:50:11;;;;;;;4.33;1.87;;;;;;;;;;4986845;28;20690;-80
2022/06/17 07:52:38;;;;;;;3.47;2.00;;;;;;;;;;4983021;28;20318;-79
2022/06/17 07:55:06;;;;;;;3.87;1.60;;;;;;;;;;4980798;28;20220;-79
2022/06/17 07:57:33;;;;;;;2.73;1.50;;;;;;;;;;4984252;28;20672;-81
2022/06/17 08:00:01;;;;;;;2.93;1.70;;;;;;;;;;4977059;28;20231;-82
2022/06/17 08:02:30;;;;;;;3.70;1.40;;;;;;;;;;4982600;28;20666;-81
2022/06/17 08:04:58;;;;;;;5.97;1.50;;;;;;;;;;5006480;23;20253;-82
2022/06/17 08:07:28;;;;;;;6.90;1.70;;;;;;;;;;5004287;28;20225;-79
2022/06/17 08:09:55;;;;;;;2.87;1.20;;;;;;;;;;5006752;28;20237;-81
2022/06/17 08:12:22;;;;;;;5.67;1.57;;;;;;;;;;5006591;28;20264;-81
2022/06/17 08:14:51;;;;;;;3.63;1.70;;;;;;;;;;5003946;28;20207;-80
2022/06/17 08:17:18;;;;;;;3.97;1.60;;;;;;;;;;4993585;28;20282;-80
2022/06/17 08:19:45;;;;;;;2.57;1.47;;;;;;;;;;4999351;28;20205;-82
2022/06/17 08:22:14;;;;;;;1.60;1.07;;;;;;;;;;4999672;28;20207;-83
2022/06/17 08:24:41;;;;;;;4.93;1.70;;;;;;;;;;4998686;28;20204;-82
2022/06/17 08:27:08;;;;;;;4.93;1.70;;;;;;;;;;5000034;28;20217;-82
2022/06/17 08:29:36;;;;;;;2.97;1.47;;;;;;;;;;4997310;28;20205;-83
2022/06/17 08:34:44;;;;;;;4.28;1.30;;;;;;;;;;4985181;28;20213;-82
2022/06/17 08:37:12;;;;;;;4.53;1.40;;;;;;;;;;4995650;28;20669;-82
2022/06/17 08:39:41;;;;;;;2.58;1.42;;;;;;;;;;4997131;28;20209;-82
2022/06/17 08:42:13;;;;;;;3.77;1.70;;;;;;;;;;4994909;28;20210;-82
2022/06/17 08:44:45;;;;;;;2.27;1.40;;;;;;;;;;4989234;28;20264;-83
2022/06/17 08:47:22;;;;;;;4.83;1.47;;;;;;;;;;4995018;28;20554;-81
2022/06/17 08:50:04;;;;;;;4.87;1.57;;;;;;;;;;4993601;28;20669;-82
2022/06/17 08:52:40;;;;;;;3.90;1.60;;;;;;;;;;4999654;28;20315;-81
2022/06/17 08:55:14;;;;;;;7.93;1.67;;;;;;;;;;5000664;28;20260;-82
2022/06/17 08:57:43;;;;;;;4.00;1.50;;;;;;;;;;4990776;28;20684;-82
2022/06/17 09:00:13;;;;;;;2.80;1.63;;;;;;;;;;4994202;28;21119;-82
2022/06/17 09:03:01;;;;;;;5.73;1.70;;;;;;;;;;4997905;28;20225;-80
2022/06/17 09:05:35;;;;;;;5.30;1.60;;;;;;;;;;4990713;28;20525;-81
2022/06/17 09:08:09;;;;;;;4.00;1.73;;;;;;;;;;4995415;28;20217;-81
2022/06/17 09:10:42;;;;;;;2.53;1.47;;;;;;;;;;4991846;28;20221;-82
2022/06/17 09:13:24;;;;;;;2.63;1.50;;;;;;;;;;4995368;28;20270;-81
2022/06/17 09:15:54;;;;;;;2.83;1.60;;;;;;;;;;4995024;28;20235;-80
2022/06/17 09:18:26;;;;;;;6.33;1.90;;;;;;;;;;4994389;28;20460;-80
2022/06/17 09:20:56;;;;;;;4.00;1.93;;;;;;;;;;4993163;28;20301;-81
2022/06/17 09:23:26;;;;;;;4.40;1.87;;;;;;;;;;4994129;28;20641;-81
2022/06/17 09:25:55;;;;;;;2.83;1.43;;;;;;;;;;4996282;28;20239;-81
2022/06/17 09:28:25;;;;;;;2.77;1.30;;;;;;;;;;4991547;28;20804;-82
2022/06/17 09:30:55;;;;;;;1.93;1.40;;;;;;;;;;4997113;28;20211;-82
2022/06/17 09:33:25;;;;;;;2.83;1.50;;;;;;;;;;4996137;28;20209;-83
2022/06/17 09:35:55;;;;;;;1.83;1.20;;;;;;;;;;5001993;28;20238;-84
2022/06/17 09:38:24;;;;;;;4.93;1.27;;;;;;;;;;4998008;28;20645;-84
2022/06/17 09:40:54;;;;;;;2.60;1.30;;;;;;;;;;4990941;28;20275;-82
2022/06/17 09:43:25;;;;;;;4.93;1.63;;;;;;;;;;4995687;28;20589;-84
2022/06/17 09:45:55;;;;;;;3.33;1.40;;;;;;;;;;4990840;28;20235;-84
2022/06/17 09:48:24;;;;;;;3.13;1.37;;;;;;;;;;4993763;28;20276;-83
2022/06/17 09:50:54;;;;;;;3.13;1.40;;;;;;;;;;4991530;28;20212;-82
2022/06/17 09:53:25;;;;;;;2.53;1.43;;;;;;;;;;4995868;28;20230;-84
2022/06/17 09:55:55;;;;;;;3.17;1.50;;;;;;;;;;4992386;28;20229;-82
2022/06/17 09:58:29;;;;;;;2.83;1.23;;;;;;;;;;4995346;28;20200;-81
2022/06/17 10:00:57;;;;;;;5.23;1.57;;;;;;;;;;4998191;28;20237;-84
2022/06/17 10:03:25;;;;;;;2.33;1.23;;;;;;;;;;4997667;28;20232;-82
2022/06/17 10:06:00;;;;;;;2.67;1.27;;;;;;;;;;4997346;28;20326;-84
2022/06/17 10:08:34;;;;;;;4.47;1.20;;;;;;;;;;5002643;28;20198;-80
2022/06/17 10:11:05;;;;;;;3.80;1.37;;;;;;;;;;5017112;28;20272;-81
2022/06/17 10:13:37;;;;;;;1.97;1.10;;;;;;;;;;5012874;28;20315;-83
2022/06/17 10:18:58;;;;;;;1.83;1.07;;;;;;;;;;4997333;28;20207;-81
2022/06/17 10:21:32;;;;;;;2.57;1.10;;;;;;;;;;4993595;28;20235;-83
2022/06/17 10:24:08;;;;;;;2.43;1.20;;;;;;;;;;4993112;28;20208;-79
2022/06/17 10:26:43;;;;;;;4.07;1.47;;;;;;;;;;4995790;28;20270;-82
2022/06/17 10:29:21;;;;;;;5.23;1.33;;;;;;;;;;4993693;28;20232;-81
2022/06/17 10:31:50;;;;;;;2.57;1.20;;;;;;;;;;4989332;28;20201;-83
2022/06/17 10:34:18;;;;;;;4.00;1.23;;;;;;;;;;4997428;28;20711;-82
2022/06/17 10:36:46;;;;;;;2.33;1.17;;;;;;;;;;4989156;28;20233;-82
2022/06/17 10:39:15;;;;;;;2.27;1.33;;;;;;;;;;4994921;28;20231;-80
2022/06/17 10:41:42;;;;;;;2.40;1.70;;;;;;;;;;4992497;28;20219;-79
2022/06/17 10:44:11;;;;;;;1.53;1.30;;;;;;;;;;4993513;28;20196;-81
2022/06/17 10:46:43;;;;;;;3.03;1.40;;;;;;;;;;4999834;28;20239;-79
2022/06/17 10:49:13;;;;;;;3.27;1.40;;;;;;;;;;4995729;28;20300;-79
2022/06/17 10:51:41;;;;;;;4.33;1.50;;;;;;;;;;5001043;28;20703;-79
2022/06/17 10:54:14;;;;;;;5.07;1.70;;;;;;;;;;4997423;28;20219;-79
2022/06/17 10:56:42;;;;;;;3.43;1.40;;;;;;;;;;4997962;28;20227;-80
2022/06/17 10:59:11;;;;;;;2.93;1.50;;;;;;;;;;4997875;28;20624;-80
2022/06/17 11:01:54;;;;;;;3.80;1.80;;;;;;;;;;4996422;28;20248;-80
2022/06/17 11:04:22;;;;;;;3.43;1.50;;;;;;;;;;4993666;28;20295;-80
2022/06/17 11:06:51;;;;;;;2.30;1.53;;;;;;;;;;5004847;28;20235;-79
2022/06/17 11:09:21;;;;;;;4.13;1.63;;;;;;;;;;4997777;28;20269;-80
2022/06/17 11:12:05;;;;;;;2.57;1.60;;;;;;;;;;4993964;28;20577;-78
2022/06/17 11:14:38;;;;;;;3.90;1.40;;;;;;;;;;4990110;28;20200;-80
2022/06/17 11:17:14;;;;;;;2.63;1.57;;;;;;;;;;4989424;28;20264;-83
2022/06/17 11:19:42;;;;;;;2.03;1.33;;;;;;;;;;4996643;28;20204;-80
2022/06/17 11:22:18;;;;;;;2.63;1.63;;;;;;;;;;4994545;28;20399;-79
2022/06/17 11:24:49;;;;;;;2.27;1.40;;;;;;;;;;5002298;28;20314;-82
2022/06/17 11:27:23;;;;;;;1.87;1.10;;;;;;;;;;5001063;28;20301;-79
2022/06/17 11:29:52;;;;;;;3.13;0.90;;;;;;;;;;4997080;28;20202;-80
2022/06/17 11:32:33;;;;;;;3.73;0.80;;;;;;;;;;4997903;28;20213;-78
2022/06/17 11:35:01;;;;;;;4.47;0.90;;;;;;;;;;4997120;28;20228;-84
2022/06/17 11:37:29;;;;;;;2.63;0.87;;;;;;;;;;4999832;28;20251;-80
2022/06/17 11:40:10;;;;;;;2.27;0.70;;;;;;;;;;4998860;28;20227;-82
2022/06/17 11:42:44;;;;;;;2.70;0.90;;;;;;;;;;5002965;28;20232;-80
2022/06/17 11:45:14;;;;;;;3.77;0.97;;;;;;;;;;4995854;28;20221;-80
2022/06/17 11:47:46;;;;;;;2.97;1.10;;;;;;;;;;4996649;28;20220;-83
2022/06/17 11:50:17;;;;;;;1.93;1.10;;;;;;;;;;4992954;28;20210;-84
2022/06/17 11:52:44;;;;;;;3.07;1.07;;;;;;;;;;4995436;28;20232;-82
2022/06/17 11:55:12;;;;;;;2.27;1.00;;;;;;;;;;4994851;28;20259;-80
2022/06/17 11:57:41;;;;;;;2.13;1.20;;;;;;;;;;4989556;28;20212;-83
2022/06/17 12:00:22;;;;;;;1.90;0.90;;;;;;;;;;4984851;28;20665;-82
2022/06/17 12:02:55;;;;;;;2.50;1.10;;;;;;;;;;4984435;28;20205;-82
2022/06/17 12:05:24;;;;;;;1.93;1.00;;;;;;;;;;4984855;28;20240;-83
2022/06/17 12:07:55;;;;;;;3.33;1.03;;;;;;;;;;4983092;28;20589;-81
2022/06/17 12:10:27;;;;;;;1.47;1.07;;;;;;;;;;4985389;28;20208;-82
2022/06/17 12:12:57;;;;;;;2.33;1.00;;;;;;;;;;4982757;28;20741;-82
2022/06/17 12:15:28;;;;;;;3.97;1.10;;;;;;;;;;5003954;28;20217;-81
2022/06/17 12:17:58;;;;;;;4.73;1.00;;;;;;;;;;5012387;28;20212;-82
2022/06/17 12:20:28;;;;;;;1.40;0.80;;;;;;;;;;5006319;28;20207;-81
2022/06/17 12:23:00;;;;;;;0.70;0.60;;;;;;;;;;4996203;28;20215;-81
2022/06/17 12:25:40;;;;;;;1.27;0.83;;;;;;;;;;4997684;28;20247;-80
2022/06/17 12:28:11;;;;;;;1.53;0.90;;;;;;;;;;4996598;28;20217;-80
2022/06/17 12:30:42;;;;;;;1.60;0.80;;;;;;;;;;4988081;28;20300;-81
2022/06/17 12:33:13;;;;;;;1.97;0.90;;;;;;;;;;4995738;28;20201;-80
2022/06/17 12:35:43;;;;;;;1.10;0.80;;;;;;;;;;4995400;28;20223;-81
2022/06/17 12:38:15;;;;;;;1.33;0.80;;;;;;;;;;4992192;28;20197;-81
2022/06/17 12:40:45;;;;;;;2.60;0.87;;;;;;;;;;4990669;28;20291;-82
2022/06/17 12:43:16;;;;;;;3.00;0.90;;;;;;;;;;4991972;28;20505;-80
2022/06/17 12:45:49;;;;;;;1.60;0.73;;;;;;;;;;4994690;28;20577;-81
2022/06/17 12:48:26;;;;;;;2.40;0.83;;;;;;;;;;4992582;28;20724;-84
2022/06/17 12:53:46;;;;;;;1.47;1.00;;;;;;;;;;4990178;28;20203;-84
2022/06/17 12:56:24;;;;;;;2.57;0.90;;;;;;;;;;4996314;28;20648;-82
2022/06/17 12:59:16;;;;;;;1.23;0.87;;;;;;;;;;4993983;28;20631;-81
2022/06/17 13:01:45;;;;;;;1.27;0.80;;;;;;;;;;4989343;28;20209;-84
2022/06/17 13:04:18;;;;;;;3.40;1.17;;;;;;;;;;4991558;28;20687;-84
2022/06/17 13:06:52;;;;;;;1.87;1.00;;;;;;;;;;4992270;28;20832;-83
2022/06/17 13:09:24;;;;;;;5.03;1.10;;;;;;;;;;4991700;28;20259;-84
2022/06/17 13:11:57;;;;;;;1.80;0.90;;;;;;;;;;4989098;28;20692;-84
2022/06/17 13:14:29;;;;;;;3.47;1.27;;;;;;;;;;4985537;28;20201;-84
2022/06/17 13:16:58;;;;;;;5.40;1.73;;;;;;;;;;4990239;28;20240;-82
2022/06/17 13:19:31;;;;;;;4.57;1.10;;;;;;;;;;4991252;28;20308;-82
2022/06/17 13:22:03;;;;;;;5.20;1.10;;;;;;;;;;4993788;28;20215;-86
2022/06/17 13:24:35;;;;;;;1.33;1.07;;;;;;;;;;4989214;28;20666;-82
2022/06/17 13:27:04;;;;;;;3.33;1.13;;;;;;;;;;4989188;28;20209;-82
2022/06/17 13:29:36;;;;;;;9.10;1.10;;;;;;;;;;4993511;28;20764;-82
2022/06/17 13:32:07;;;;;;;3.50;1.07;;;;;;;;;;4993076;28;20210;-83
2022/06/17 13:34:38;;;;;;;3.40;1.10;;;;;;;;;;4996568;28;20213;-82
2022/06/17 13:37:10;;;;;;;1.90;1.20;;;;;;;;;;4991283;28;20577;-83
2022/06/17 13:39:44;;;;;;;1.43;0.87;;;;;;;;;;4992010;28;20667;-83
2022/06/17 13:42:13;;;;;;;1.47;1.00;;;;;;;;;;4995557;28;20208;-83
2022/06/17 13:44:45;;;;;;;5.93;1.07;;;;;;;;;;5002241;28;20216;-83
2022/06/17 13:47:18;;;;;;;1.63;0.90;;;;;;;;;;5012692;28;20229;-83
2022/06/17 13:49:49;;;;;;;4.90;0.80;;;;;;;;;;5014256;28;20232;-83
2022/06/17 13:52:21;;;;;;;2.07;0.80;;;;;;;;;;4994559;28;20220;-83
2022/06/17 13:54:52;;;;;;;1.50;0.80;;;;;;;;;;4993751;28;20213;-83
2022/06/17 13:57:25;;;;;;;1.23;0.80;;;;;;;;;;4998977;28;20302;-83
2022/06/17 13:59:54;;;;;;;1.17;0.83;;;;;;;;;;4998305;28;20204;-83
2022/06/17 14:02:28;;;;;;;1.30;0.70;;;;;;;;;;4995098;28;20205;-83
2022/06/17 14:07:46;;;;;;;1.77;0.90;;;;;;;;;;4995652;28;20248;-83
2022/06/17 14:10:27;;;;;;;3.27;0.80;;;;;;;;;;4993013;28;20205;-84
2022/06/17 14:12:55;;;;;;;6.60;1.10;;;;;;;;;;4986465;28;20219;-82
2022/06/17 14:15:27;;;;;;;1.20;0.80;;;;;;;;;;4990209;28;20233;-84
2022/06/17 14:17:56;;;;;;;6.67;0.80;;;;;;;;;;4989790;28;20296;-82
2022/06/17 14:20:29;;;;;;;5.60;0.70;;;;;;;;;;4990292;28;20252;-81
2022/06/17 14:23:03;;;;;;;3.10;0.80;;;;;;;;;;4989618;28;20704;-84
2022/06/17 14:25:45;;;;;;;1.63;0.90;;;;;;;;;;4991727;28;20229;-84
2022/06/17 14:28:27;;;;;;;0.83;0.70;;;;;;;;;;4984936;28;21280;-82
2022/06/17 14:31:09;;;;;;;2.10;0.93;;;;;;;;;;4990720;28;20732;-83
2022/06/17 14:33:44;;;;;;;1.20;0.70;;;;;;;;;;4992196;28;20209;-82
2022/06/17 14:36:16;;;;;;;1.43;0.80;;;;;;;;;;4985627;28;20225;-82
2022/06/17 14:38:56;;;;;;;1.10;0.60;;;;;;;;;;4992778;28;20264;-82
2022/06/17 14:44:22;;;;;;;1.47;0.90;;;;;;;;;;5008831;28;20220;-82
2022/06/17 14:47:07;;;;;;;3.03;0.80;;;;;;;;;;5006871;28;20248;-83
2022/06/17 14:49:42;;;;;;;4.97;1.30;;;;;;;;;;4996952;28;20281;-81
2022/06/17 14:52:21;;;;;;;5.30;1.00;;;;;;;;;;4988326;28;20214;-83
2022/06/17 14:54:59;;;;;;;3.17;1.00;;;;;;;;;;4990248;28;20260;-83
2022/06/17 14:57:28;;;;;;;4.50;1.07;;;;;;;;;;4984590;28;20213;-82
2022/06/17 15:00:03;;;;;;;3.60;1.10;;;;;;;;;;4988397;28;20224;-81
2022/06/17 15:02:40;;;;;;;1.87;1.00;;;;;;;;;;4988354;28;20273;-81
2022/06/17 15:05:08;;;;;;;5.10;1.20;;;;;;;;;;4989448;28;20643;-83
2022/06/17 15:07:37;;;;;;;3.07;1.10;;;;;;;;;;4990200;28;20225;-83
2022/06/17 15:10:16;;;;;;;2.67;1.30;;;;;;;;;;4990434;28;20304;-83
2022/06/17 15:12:46;;;;;;;4.33;1.17;;;;;;;;;;4981073;28;20217;-82
2022/06/17 15:15:15;;;;;;;3.83;1.40;;;;;;;;;;4984645;28;20687;-81
2022/06/17 15:17:43;;;;;;;3.93;1.40;;;;;;;;;;4984796;28;20216;-82
2022/06/17 15:20:14;;;;;;;1.50;1.20;;;;;;;;;;4984616;28;20210;-81
2022/06/17 15:22:47;;;;;;;1.70;1.20;;;;;;;;;;4990681;28;20217;-83
2022/06/17 15:25:24;;;;;;;1.53;1.13;;;;;;;;;;4986666;28;20236;-82
2022/06/17 15:27:55;;;;;;;3.23;1.20;;;;;;;;;;4989073;28;20280;-83
2022/06/17 15:30:27;;;;;;;1.37;1.00;;;;;;;;;;4985896;28;20698;-81